Lustre, Montana
Current Conditions -  °F | °C
As of 7:28 AM on Thursday 27 Nov 2014 (Local Time) from KOLF Reporting Station
Light Snow Light Snow  
Wind Chill:   Ceiling: 3900
Heat Index: 18°   Visibility: 2.5mi
Dew Point: 14°   Wind: 17mph
Humidity: 84%   Direction: 70°ENE
Pressure: 30.02"   Gusts: NA
Location:  48.2842°N, 105.947°W
Report Text: KOLF 271428Z AUTO 07015KT 2 1/2SM -SN BR SCT029 OVC039 M08/M10 A3002 RMK AO2 SNB1355 P0000 T10781100
Loading
Personal Weather Stations






























Interactive Weather Map New forecast layout! Learn more

10-Day Weather Forecast

Advertisements
Track Severe Weather on mobile